Terminal Aerodrome Forecast
Issued by NWS

Home | Current Version | Previous Version | Text Only | Print | Product List | Glossary On
Versions: 1 2 3 4 5 6 7 8 9 10 11 12 13 14
000
FTUS45 KSLC 291735
TAFSGU
TAF
KSGU 291735Z 2918/3018 25007KT P6SM VCSH SCT090 BKN150
     FM292100 25010G20KT P6SM VCSH SCT080 BKN120
     FM300300 VRB04KT P6SM SCT150
      AMD LTD TO CLD VIS AND WIND=

USA.gov is the U.S. government's official web portal to all federal, state and local government web resources and services.